State University, AR (72467)

8:32 AM CST on February 11, 2016 (GMT -0600)
Hilltop | | Change Station
CLOSE
Current Station
Personal Weather Station
Location: Jonesboro, AR
Elevation: 384 ft
Nearby Weather Stations

Elev 384 ft 35.86 °N, 90.65 °W | Updated 4 minutes ago

Clear
Clear
29.1 °F
Feels Like 25 °F
N
3.7
Wind Variable Wind from NNE

Today
High -- | Low -- °F
--% Chance of Precip.
Yesterday
High -- | Low -- °F
Precip. -- in
Pressure 30.19 in
Visibility 10.0 miles
Clouds Clear
Windchill 25 °F
Dew Point 20 °F
Humidity 68%
Rainfall 0.00 in
Snow Depth Not available.
6:54 AM 5:39 PM
Waxing Crescent, 12% visible
METAR KJBR 111353Z AUTO 05011KT 10SM CLR M02/M07 A3018 RMK AO2 SLP222 T10221072
Pressure 30.19 in
Visibility 10.0 miles
Clouds Clear
Windchill 25 °F
Dew Point 20 °F
Humidity 68%
Rainfall 0.00 in
Snow Depth Not available.
6:54 AM 5:39 PM
Waxing Crescent, 12% visible
METAR KJBR 111353Z AUTO 05011KT 10SM CLR M02/M07 A3018 RMK AO2 SLP222 T10221072

10-Day Weather Forecast

Almanac

Astronomy

Feb. 11, 2016 Rise Set
Actual Time
Civil Twilight
Nautical Twilight
Astronomical Twilight
Moon
Length of Visible Light
Length of Day
Tomorrow will be .
, % of the Moon is Illuminated

Today's Extremes

State Highs State Lows

Community

WunderPhotos

Upload Photos

1,892,054 photos uploaded!

WunderBlog® & News

Nearby

Air Quality

  Air Quality AQ Index Pollutant
Not available.

Snow Depth

Station Depth Elevation

Earthquake Activity

City Distance Mag. Time & Date
Minimum magnitude displayed is 2.5.

Coastal Water Temperatures

Place Temperature

Stations

Nearby Weather Stations

Station Location Temp. Windchill Dew Point Humidity Wind Precip. Elev Updated Type
                   

Watches & Warnings

There are currently no watches in effect.